Flight Track Log - Related Links

Times and Time Zones

All times are in EDT time to prevent confusion due to time zone crossing. See the BOE1 flight status page for this flight to view local times or setup timezone preferences in your user account.

Time Position Orientation Groundspeed Altitude Reporting Facility
EDT Latitude Longitude Course Direction KTS MPH feet Rate Location/Type
Mon 08:57:47 PM 47.5986 -122.3678 330° Northwest 214 246 2,400  Level Seattle Center
Mon 08:58:48 PM 47.6497 -122.4119 330° Northwest 214 246 3,100 25 Climbing Seattle Center
Mon 09:00:00 PM 47.7098 -122.3816 North  Level Estimated
Mon 09:01:45 PM 47.7975 -122.3369 10° North 211 243 2,500  Level Seattle Center
Mon 09:02:06 PM 47.8044 -122.3261 46° Northeast 209 241 2,400 -1,091 Descending Seattle Center
Mon 09:02:40 PM 47.8314 -122.2950 38° Northeast 169 194 1,500 -984 Descending Seattle Center
Mon 09:03:07 PM 47.8511 -122.2842 20° North 162 186 1,400 -477 Descending Seattle Center
Mon 09:04:08 PM 47.8892 -122.2850 359° North 139 160 800 68 Descending Seattle Center
Mon 09:04:35 PM 47.9069 -122.2861 358° North 123 142 1,500 1,869 Climbing Seattle Center
Mon 09:05:09 PM 47.9292 -122.2867 359° North 149 171 2,700 1,139 Climbing Seattle Center
Mon 09:05:54 PM 47.9583 -122.3400 309° West 231 266 3,000 295 Climbing Seattle Center
Mon 09:06:10 PM 47.9556 -122.3494 246° West 204 235 3,000  Level Seattle Center
Mon 09:07:00 PM 47.9000 -122.2667 10° North  Level FlightAware Approximate
Mon 09:07:01 PM 47.9078 -122.3683 195° South 207 238 3,000  Level Seattle Center
Mon 09:07:50 PM 47.8608 -122.3678 180° South 200 230 2,600 -507 Descending Seattle Center
Mon 09:08:12 PM 47.8508 -122.3558 141° Southeast 200 230 2,400 -940 Descending Seattle Center
Mon 09:09:13 PM 47.8511 -122.2942 90° East 162 186 1,300 -840 Descending Seattle Center
Mon 09:09:52 PM 47.8781 -122.2856 12° North 133 153 1,000 -492 Descending Seattle Center
Mon 09:10:14 PM 47.8867 -122.2850 North 135 155 800 857 Descending Seattle Center
Mon 09:10:34 PM 47.9069 -122.2861 358° North 145 167 1,600 1,672 Climbing Seattle Center
Mon 09:11:15 PM 47.9394 -122.2900 355° North 168 193 2,500 684 Climbing Seattle Center
Mon 09:11:53 PM 47.9539 -122.3394 294° West 234 269 2,500  Level Seattle Center
Mon 09:12:15 PM 47.9447 -122.3667 243° Southwest 219 252 2,500  Level Seattle Center
Mon 09:13:00 PM 47.9017 -122.3881 198° South 235 270 2,500  Level Seattle Center
Mon 09:13:16 PM 47.8889 -122.3853 172° South 221 254 2,500 367 Level Seattle Center
Mon 09:13:49 PM 47.8486 -122.3811 176° South 225 259 2,800 1,279 Climbing Seattle Center
Mon 09:14:17 PM 47.8369 -122.3503 119° Southeast 225 259 3,800 1,180 Climbing Seattle Center
Mon 09:14:50 PM 47.8236 -122.2994 111° Southeast 224 258 4,000 393 Climbing Seattle Center
Mon 09:15:18 PM 47.8056 -122.2633 127° Southeast 221 254 4,200 197 Climbing Seattle Center
Mon 09:15:51 PM 47.7797 -122.2314 140° Southeast 222 255 4,200  Level Seattle Center
Mon 09:16:19 PM 47.7578 -122.2039 140° Southeast 222 255 4,200  Level Seattle Center
Mon 09:16:58 PM 47.7300 -122.1667 138° Southeast 222 255 4,200  Level Seattle Center
Mon 09:17:19 PM 47.7103 -122.1461 145° Southeast 222 255 4,200  Level Seattle Center
Mon 09:17:58 PM 47.6775 -122.1169 149° Southeast 223 257 4,200  Level Seattle Center
Mon 09:18:20 PM 47.6561 -122.1011 153° Southeast 222 255 4,200 -145 Level Seattle Center
Mon 09:19:21 PM 47.5986 -122.0972 177° South 214 246 4,000 -447 Descending Seattle Center
Mon 09:19:54 PM 47.5672 -122.1125 198° South 221 254 3,500 -885 Descending Seattle Center
Mon 09:20:22 PM 47.5411 -122.1303 205° Southwest 221 254 3,100 -984 Descending Seattle Center
Mon 09:20:55 PM 47.5097 -122.1575 210° Southwest 214 246 2,500 -885 Descending Seattle Center
Mon 09:21:23 PM 47.4881 -122.1825 218° Southwest 212 244 2,200 -590 Descending Seattle Center
Mon 09:21:56 PM 47.4669 -122.2075 219° Southwest 193 222 1,900 -590 Descending Seattle Center
Mon 09:22:24 PM 47.4617 -122.2392 256° West 180 207 1,600 -885 Descending Seattle Center
Mon 09:22:57 PM 47.4756 -122.2586 317° Northwest 128 147 1,000 -885 Descending Seattle Center
Mon 09:23:25 PM 47.4900 -122.2706 331° Northwest 131 151 700 -590 Descending Seattle Center
Mon 09:23:58 PM 47.5064 -122.2842 331° Northwest 125 144 400 -545 Descending Seattle Center

Login

Don't have an account? Register now (free) for customized features, flight alerts, and more!